Time;durP1;ratioP1;P1;durP2;ratioP2;P2;SDS_P1;SDS_P2;PMS_P1;PMS_P2;Temp;Humidity;BMP_temperature;BMP_pressure;BME280_temperature;BME280_humidity;BME280_pressure;Samples;Min_cycle;Max_cycle;Signal;HPM_P1;HPM_P2
2024/03/15 00:01:40;;;;;;;;;29.50;23.00;;;;;3.90;93.81;100555.55;111427;254;40385;-50
2024/03/15 00:04:15;;;;;;;;;36.00;25.00;;;;;3.88;93.72;100559.64;110713;241;765905;-50
2024/03/15 00:06:56;;;;;;;;;37.00;25.75;;;;;3.84;93.92;100556.23;111464;255;40828;-50
2024/03/15 00:09:33;;;;;;;;;33.67;23.33;;;;;3.79;94.45;100550.84;111350;240;161164;-50
2024/03/15 00:12:12;;;;;;;;;26.00;19.00;;;;;3.80;94.29;100549.57;111523;254;39875;-51
2024/03/15 00:14:49;;;;;;;;;30.00;23.00;;;;;3.77;94.05;100547.36;111368;241;161150;-51
2024/03/15 00:17:27;;;;;;;;;35.00;24.00;;;;;3.74;94.28;100545.65;111437;254;39553;-54
2024/03/15 00:20:03;;;;;;;;;34.00;24.00;;;;;3.72;94.34;100541.17;111445;254;40065;-54
2024/03/15 00:22:36;;;;;;;;;26.50;21.00;;;;;3.69;94.37;100535.92;111346;240;162622;-53
2024/03/15 00:25:13;;;;;;;;;26.75;20.00;;;;;3.68;94.17;100527.84;111435;254;39327;-53
2024/03/15 00:27:50;;;;;;;;;31.33;22.33;;;;;3.66;94.23;100526.27;111312;241;161199;-53
2024/03/15 00:30:23;;;;;;;;;31.50;23.00;;;;;3.61;94.65;100523.71;111417;254;39736;-52
2024/03/15 00:33:04;;;;;;;;;27.00;21.00;;;;;3.58;94.72;100520.63;111339;240;161419;-53
2024/03/15 00:35:43;;;;;;;;;28.00;20.50;;;;;3.57;94.95;100517.54;111395;254;41354;-53
2024/03/15 00:38:28;;;;;;;;;30.33;22.00;;;;;3.57;94.91;100515.89;111434;254;39065;-54
2024/03/15 00:41:05;;;;;;;;;34.00;26.00;;;;;3.57;95.05;100514.84;111312;241;162142;-52
2024/03/15 00:43:45;;;;;;;;;31.50;23.25;;;;;3.54;94.97;100517.27;111444;254;39708;-52
2024/03/15 00:46:21;;;;;;;;;29.33;21.00;;;;;3.51;95.14;100515.39;111349;240;161271;-53
2024/03/15 00:49:02;;;;;;;;;29.00;20.33;;;;;3.48;95.37;100508.91;111467;254;40966;-52
2024/03/15 00:51:39;;;;;;;;;26.00;19.67;;;;;3.48;95.67;100507.84;111350;241;160891;-50
2024/03/15 00:54:18;;;;;;;;;24.50;19.00;;;;;3.46;95.20;100504.79;111472;254;39977;-50
2024/03/15 00:56:57;;;;;;;;;26.25;21.00;;;;;3.45;95.22;100502.42;111374;240;161544;-53
2024/03/15 00:59:37;;;;;;;;;33.67;22.33;;;;;3.44;95.30;100505.73;111537;254;40592;-53
2024/03/15 01:02:15;;;;;;;;;23.00;17.00;;;;;3.40;95.43;100501.94;111492;254;40589;-52
2024/03/15 01:04:54;;;;;;;;;34.50;25.00;;;;;3.37;95.43;100501.89;111358;241;161088;-53
2024/03/15 01:07:36;;;;;;;;;29.00;22.00;;;;;3.33;95.67;100501.55;111451;254;39983;-53
2024/03/15 01:10:20;;;;;;;;;31.67;21.67;;;;;3.32;95.56;100504.31;111367;240;160897;-53
2024/03/15 01:12:59;;;;;;;;;31.00;22.00;;;;;3.27;95.40;100504.32;111428;254;40463;-53
2024/03/15 01:15:38;;;;;;;;;21.75;16.75;;;;;3.23;95.62;100508.35;111306;241;162737;-53
2024/03/15 01:18:20;;;;;;;;;25.67;17.67;;;;;3.23;95.61;100508.24;111379;254;39687;-50
2024/03/15 01:20:58;;;;;;;;;27.00;21.25;;;;;3.19;95.60;100505.88;111331;240;161543;-53
2024/03/15 01:23:38;;;;;;;;;27.00;20.00;;;;;3.20;95.69;100508.83;111407;254;39831;-54
2024/03/15 01:26:17;;;;;;;;;28.50;20.50;;;;;3.21;95.65;100509.11;111432;254;39098;-50
2024/03/15 01:28:54;;;;;;;;;28.50;20.75;;;;;3.16;95.39;100508.85;111271;241;161706;-50
2024/03/15 01:31:32;;;;;;;;;32.00;22.00;;;;;3.11;95.49;100505.79;111457;254;39519;-53
2024/03/15 01:34:13;;;;;;;;;32.00;25.00;;;;;3.07;95.55;100504.19;111301;240;161424;-53
2024/03/15 01:36:47;;;;;;;;;26.00;19.33;;;;;3.07;95.57;100503.63;111454;254;40637;-53
2024/03/15 01:39:24;;;;;;;;;37.25;27.00;;;;;3.07;95.53;100505.77;111341;241;161140;-52
2024/03/15 01:42:03;;;;;;;;;33.00;21.33;;;;;3.05;95.51;100506.82;111438;254;41074;-49
2024/03/15 01:44:54;;;;;;;;;27.50;22.00;;;;;3.01;95.66;100505.58;111493;254;39165;-50
2024/03/15 01:47:32;;;;;;;;;25.33;20.00;;;;;3.00;95.63;100503.59;111528;254;40242;-49
2024/03/15 01:50:09;;;;;;;;;29.00;21.00;;;;;3.00;95.74;100507.66;111497;254;41229;-50
2024/03/15 01:52:44;;;;;;;;;37.67;27.33;;;;;2.99;95.77;100507.58;111382;241;161347;-54
2024/03/15 01:55:22;;;;;;;;;30.00;22.00;;;;;2.90;95.87;100501.42;111432;254;40222;-54
2024/03/15 01:58:00;;;;;;;;;37.00;25.50;;;;;2.82;95.79;100501.12;111339;241;161250;-50
2024/03/15 02:00:56;;;;;;;;;32.67;21.00;;;;;2.78;96.09;100502.17;111427;254;39522;-52
2024/03/15 02:03:39;;;;;;;;;39.00;27.00;;;;;2.75;95.85;100500.85;111340;240;161850;-52
2024/03/15 02:06:22;;;;;;;;;21.00;16.75;;;;;2.73;96.25;100498.94;111432;254;39567;-50
2024/03/15 02:08:59;;;;;;;;;29.00;22.00;;;;;2.71;96.13;100496.95;111293;241;161205;-50
2024/03/15 02:11:37;;;;;;;;;31.50;21.00;;;;;2.71;96.16;100501.59;111484;254;40097;-49
2024/03/15 02:14:13;;;;;;;;;28.50;20.00;;;;;2.75;97.01;100500.17;111438;254;40823;-49
2024/03/15 02:16:48;;;;;;;;;33.50;23.00;;;;;2.75;96.93;100504.00;111405;241;162041;-49
2024/03/15 02:19:24;;;;;;;;;31.00;23.00;;;;;2.71;96.94;100507.80;111539;254;39598;-50
2024/03/15 02:22:02;;;;;;;;;29.25;20.00;;;;;2.67;96.72;100506.02;111417;241;162232;-54
2024/03/15 02:24:40;;;;;;;;;33.00;23.00;;;;;2.69;96.78;100509.77;111437;254;39189;-54
2024/03/15 02:27:14;;;;;;;;;31.00;22.00;;;;;2.69;96.79;100507.25;111356;240;161346;-53
2024/03/15 02:29:51;;;;;;;;;29.00;22.67;;;;;2.67;96.89;100504.80;111423;254;39612;-52
2024/03/15 02:32:34;;;;;;;;;24.25;18.00;;;;;2.65;97.21;100503.73;111472;254;40376;-54
2024/03/15 02:35:13;;;;;;;;;29.00;22.00;;;;;2.67;97.27;100503.01;111347;241;161404;-54
2024/03/15 02:37:49;;;;;;;;;27.00;19.33;;;;;2.67;97.29;100503.70;111542;254;39178;-51
2024/03/15 02:40:24;;;;;;;;;33.00;24.00;;;;;2.66;97.38;100501.11;111358;240;161163;-50
2024/03/15 02:43:01;;;;;;;;;27.00;20.00;;;;;2.72;97.26;100501.13;111529;254;39415;-54
2024/03/15 02:45:36;;;;;;;;;35.00;24.00;;;;;2.74;97.55;100501.27;111396;241;161369;-54
2024/03/15 02:48:15;;;;;;;;;35.00;25.75;;;;;2.78;97.81;100500.96;111473;254;41297;-54
2024/03/15 02:50:52;;;;;;;;;37.75;27.00;;;;;2.79;98.01;100499.92;111349;240;161571;-51
2024/03/15 02:53:30;;;;;;;;;25.75;18.25;;;;;2.78;98.17;100494.85;111526;254;40250;-50
2024/03/15 02:56:05;;;;;;;;;33.00;22.00;;;;;2.81;98.25;100496.16;111481;254;40076;-53
2024/03/15 02:58:40;;;;;;;;;35.00;23.00;;;;;2.83;98.40;100496.75;111328;241;162187;-54
2024/03/15 03:01:16;;;;;;;;;38.00;26.33;;;;;2.79;98.43;100492.65;111469;254;40147;-54
2024/03/15 03:03:55;;;;;;;;;27.00;16.00;;;;;2.79;98.46;100494.06;111305;240;161173;-54
2024/03/15 03:06:36;;;;;;;;;32.00;23.00;;;;;2.77;98.74;100490.01;111463;254;40464;-54
2024/03/15 03:09:11;;;;;;;;;31.33;21.00;;;;;2.76;98.70;100492.23;111327;254;161890;-54
2024/03/15 03:11:50;;;;;;;;;27.00;20.00;;;;;2.80;98.55;100493.30;111407;254;39237;-50
2024/03/15 03:14:33;;;;;;;;;31.00;22.67;;;;;2.80;98.46;100487.20;111461;254;39910;-50
2024/03/15 03:17:10;;;;;;;;;27.25;20.50;;;;;2.81;98.62;100495.66;111335;254;161176;-50
2024/03/15 03:19:49;;;;;;;;;24.50;17.00;;;;;2.84;98.53;100489.54;111411;254;40019;-49
2024/03/15 03:22:29;;;;;;;;;28.67;22.00;;;;;2.88;98.70;100489.33;111319;241;161255;-54
2024/03/15 03:25:09;;;;;;;;;30.00;21.00;;;;;2.88;98.79;100491.69;111383;254;39327;-54
2024/03/15 03:27:46;;;;;;;;;27.00;19.00;;;;;2.91;98.68;100490.29;111330;242;161426;-54
2024/03/15 03:30:21;;;;;;;;;31.00;23.33;;;;;2.93;98.48;100487.11;111459;255;39521;-53
2024/03/15 03:32:55;;;;;;;;;30.00;21.00;;;;;2.94;98.73;100486.86;111395;241;160860;-54
2024/03/15 03:35:31;;;;;;;;;31.00;22.50;;;;;2.95;98.93;100488.56;111612;255;39922;-54
2024/03/15 03:38:07;;;;;;;;;26.25;19.00;;;;;2.93;98.95;100483.92;111467;255;39856;-54
2024/03/15 03:40:42;;;;;;;;;25.00;17.00;;;;;2.94;99.00;100488.46;111398;241;161136;-51
2024/03/15 03:43:17;;;;;;;;;36.00;26.00;;;;;2.90;98.97;100493.91;111433;255;39519;-50
2024/03/15 03:45:56;;;;;;;;;35.75;23.25;;;;;2.92;99.01;100491.82;111247;241;161174;-55
2024/03/15 03:48:35;;;;;;;;;30.00;19.00;;;;;2.94;99.06;100493.77;111355;256;41130;-54
2024/03/15 03:51:15;;;;;;;;;26.75;16.00;;;;;2.93;99.13;100497.20;111296;241;160904;-50
2024/03/15 03:53:48;;;;;;;;;32.00;24.25;;;;;2.91;99.32;100498.13;111443;255;39498;-50
2024/03/15 03:56:39;;;;;;;;;23.00;16.67;;;;;2.92;99.28;100494.33;111531;255;39287;-50
2024/03/15 03:59:21;;;;;;;;;25.00;19.00;;;;;2.90;99.22;100500.56;111118;242;160369;-54
2024/03/15 04:02:03;;;;;;;;;31.00;21.00;;;;;2.94;99.18;100503.55;111462;255;40616;-53
2024/03/15 04:04:39;;;;;;;;;30.75;22.25;;;;;2.96;99.35;100506.17;111340;241;161301;-53
2024/03/15 04:07:13;;;;;;;;;34.00;21.00;;;;;2.97;99.41;100505.24;111513;255;41073;-54
2024/03/15 04:09:50;;;;;;;;;30.00;19.00;;;;;2.98;99.50;100510.15;111481;240;161273;-57
2024/03/15 04:12:27;;;;;;;;;26.50;20.00;;;;;3.01;99.45;100502.61;111557;255;39557;-50
2024/03/15 04:15:05;;;;;;;;;33.67;24.33;;;;;3.03;99.58;100505.44;111388;241;161479;-50
2024/03/15 04:17:43;;;;;;;;;33.75;23.00;;;;;3.04;99.54;100505.51;111502;255;40553;-50
2024/03/15 04:20:22;;;;;;;;;33.50;21.50;;;;;3.07;99.65;100504.19;111443;255;40802;-50
2024/03/15 04:23:00;;;;;;;;;27.00;21.00;;;;;3.02;99.64;100502.13;111301;242;162904;-53
2024/03/15 04:25:43;;;;;;;;;32.00;23.00;;;;;3.06;99.67;100504.77;111418;254;39100;-53
2024/03/15 04:28:25;;;;;;;;;31.00;22.00;;;;;3.08;99.57;100508.53;111290;241;161187;-54
2024/03/15 04:31:05;;;;;;;;;30.00;19.00;;;;;3.07;99.71;100506.28;111432;255;40307;-51
2024/03/15 04:33:43;;;;;;;;;20.25;15.00;;;;;3.02;99.64;100507.15;111318;245;162118;-51
2024/03/15 04:36:24;;;;;;;;;32.00;21.50;;;;;3.07;99.70;100510.05;111415;255;39700;-50
2024/03/15 04:39:05;;;;;;;;;31.00;22.00;;;;;3.12;99.58;100515.95;111299;241;161337;-50
2024/03/15 04:41:43;;;;;;;;;26.00;19.00;;;;;3.13;99.55;100516.83;111476;255;39117;-54
2024/03/15 04:44:22;;;;;;;;;29.33;22.00;;;;;3.11;99.64;100518.94;111483;255;39990;-55
2024/03/15 04:47:00;;;;;;;;;32.75;21.00;;;;;3.11;99.53;100518.89;111369;241;161571;-51
2024/03/15 04:49:35;;;;;;;;;34.67;24.00;;;;;3.06;99.78;100524.39;111427;255;39045;-51
2024/03/15 04:52:09;;;;;;;;;31.00;20.00;;;;;2.99;99.82;100523.02;111350;242;161142;-53
2024/03/15 04:54:44;;;;;;;;;29.50;21.75;;;;;2.96;99.88;100522.79;111470;255;40895;-53
2024/03/15 04:57:25;;;;;;;;;32.25;22.00;;;;;2.95;99.87;100523.56;111371;240;165947;-53
2024/03/15 05:00:08;;;;;;;;;28.00;20.50;;;;;2.96;99.91;100530.88;111438;255;39865;-53
2024/03/15 05:02:53;;;;;;;;;29.75;20.50;;;;;2.94;99.91;100526.66;111492;255;39204;-54
2024/03/15 05:05:35;;;;;;;;;19.00;13.00;;;;;2.93;100.00;100525.73;111434;255;39345;-53
2024/03/15 05:08:10;;;;;;;;;24.00;15.67;;;;;2.93;100.00;100527.48;111461;255;40107;-53
2024/03/15 05:10:47;;;;;;;;;33.00;22.00;;;;;3.00;99.97;100523.50;111435;241;161019;-52
2024/03/15 05:13:26;;;;;;;;;19.00;14.00;;;;;3.06;99.89;100523.00;111439;255;39106;-50
2024/03/15 05:16:03;;;;;;;;;30.33;19.00;;;;;3.07;99.93;100525.50;111328;241;161029;-51
2024/03/15 05:18:45;;;;;;;;;29.00;19.00;;;;;3.11;99.95;100524.63;111417;255;39245;-50
2024/03/15 05:21:27;;;;;;;;;34.00;23.00;;;;;3.06;100.00;100525.30;111347;241;160969;-53
2024/03/15 05:24:04;;;;;;;;;20.00;15.00;;;;;3.01;100.00;100528.00;111538;255;40140;-53
2024/03/15 05:26:38;;;;;;;;;29.75;21.50;;;;;3.05;99.99;100532.34;111453;255;39145;-51
2024/03/15 05:29:15;;;;;;;;;26.50;19.50;;;;;3.05;99.98;100533.58;111326;240;162294;-51
2024/03/15 05:31:55;;;;;;;;;29.00;21.00;;;;;3.09;100.00;100533.73;111419;255;39084;-53
2024/03/15 05:34:32;;;;;;;;;22.00;16.00;;;;;3.08;100.00;100536.15;111384;241;161349;-53
2024/03/15 05:37:11;;;;;;;;;24.00;18.00;;;;;3.02;100.00;100537.48;111451;255;39641;-51
2024/03/15 05:39:52;;;;;;;;;24.67;17.00;;;;;2.99;100.00;100538.30;111320;240;161170;-51
2024/03/15 05:42:33;;;;;;;;;18.75;12.00;;;;;3.04;100.00;100540.76;111453;255;39300;-51
2024/03/15 05:45:09;;;;;;;;;17.75;13.50;;;;;3.03;100.00;100541.54;111099;241;161602;-50
2024/03/15 05:47:44;;;;;;;;;21.00;12.00;;;;;3.03;100.00;100544.39;111592;255;41227;-50
2024/03/15 05:50:18;;;;;;;;;25.00;17.33;;;;;3.05;100.00;100542.95;111391;255;40343;-51
2024/03/15 05:52:52;;;;;;;;;18.50;13.50;;;;;3.08;100.00;100540.42;111510;240;161409;-54
2024/03/15 05:55:28;;;;;;;;;22.00;15.00;;;;;3.05;100.00;100540.48;111633;255;39710;-54
2024/03/15 05:58:02;;;;;;;;;21.75;16.00;;;;;3.08;100.00;100543.80;111399;241;161247;-52
2024/03/15 06:00:37;;;;;;;;;24.00;17.00;;;;;3.15;99.97;100545.46;111507;255;40016;-53
2024/03/15 06:03:12;;;;;;;;;27.75;18.25;;;;;3.22;100.00;100547.49;111363;240;161664;-50
2024/03/15 06:05:50;;;;;;;;;22.25;15.00;;;;;3.22;99.98;100546.73;111495;255;41646;-51
2024/03/15 06:08:29;;;;;;;;;37.75;25.25;;;;;3.30;99.92;100546.52;111449;255;40918;-50
2024/03/15 06:11:09;;;;;;;;;18.00;13.00;;;;;3.34;99.95;100552.56;111447;241;161219;-50
2024/03/15 06:13:47;;;;;;;;;27.00;21.50;;;;;3.33;100.00;100554.67;111423;255;40019;-51
2024/03/15 06:16:28;;;;;;;;;24.00;16.00;;;;;3.35;100.00;100551.92;111378;240;161546;-51
2024/03/15 06:19:06;;;;;;;;;18.00;13.00;;;;;3.37;100.00;100549.45;111435;255;40147;-50
2024/03/15 06:21:43;;;;;;;;;19.00;14.00;;;;;3.44;99.96;100546.16;111372;241;161502;-50
2024/03/15 06:24:24;;;;;;;;;23.00;15.00;;;;;3.53;99.97;100544.59;111459;255;41214;-50
2024/03/15 06:27:05;;;;;;;;;19.00;11.25;;;;;3.57;100.00;100541.84;111275;240;161079;-52
2024/03/15 06:29:52;;;;;;;;;22.25;14.75;;;;;3.58;99.99;100547.88;111439;255;40385;-52
2024/03/15 06:32:28;;;;;;;;;19.00;13.00;;;;;3.59;100.00;100550.63;111454;255;39953;-50
2024/03/15 06:35:19;;;;;;;;;16.50;10.50;;;;;3.68;100.00;100545.50;111421;241;161483;-49
2024/03/15 06:38:07;;;;;;;;;16.50;11.75;;;;;3.70;100.00;100551.02;111555;255;40118;-54
2024/03/15 06:40:56;;;;;;;;;21.75;11.75;;;;;3.79;100.00;100550.15;111407;240;161055;-51
2024/03/15 06:43:42;;;;;;;;;20.00;12.00;;;;;3.89;100.00;100553.34;111457;255;41074;-50
2024/03/15 06:46:24;;;;;;;;;22.00;16.75;;;;;3.95;100.00;100550.77;111415;241;161478;-50
2024/03/15 06:49:12;;;;;;;;;27.00;15.50;;;;;4.03;100.00;100552.83;111472;255;39261;-50
2024/03/15 06:54:41;;;;;;;;;20.33;15.00;;;;;4.18;100.00;100550.73;111462;255;39699;-54
2024/03/15 06:57:18;;;;;;;;;21.00;16.00;;;;;4.34;100.00;100552.04;111367;241;161478;-50
2024/03/15 06:59:56;;;;;;;;;30.00;18.00;;;;;4.46;100.00;100554.16;111513;255;39864;-51
2024/03/15 07:02:32;;;;;;;;;21.00;13.00;;;;;4.53;99.97;100554.91;111479;255;41437;-50
2024/03/15 07:05:08;;;;;;;;;24.00;14.00;;;;;4.61;99.94;100553.75;111315;240;161019;-50
2024/03/15 07:07:46;;;;;;;;;21.25;15.25;;;;;4.74;99.85;100547.23;111464;255;39406;-54
2024/03/15 07:10:24;;;;;;;;;21.00;15.00;;;;;4.92;99.72;100551.23;111385;241;161233;-54
2024/03/15 07:13:03;;;;;;;;;34.00;24.00;;;;;5.06;99.51;100547.98;111550;255;39291;-55
2024/03/15 07:15:38;;;;;;;;;26.00;17.75;;;;;5.24;99.51;100552.42;111334;255;162493;-55
2024/03/15 07:18:14;;;;;;;;;26.00;18.00;;;;;5.30;99.17;100549.23;111421;254;40081;-51
2024/03/15 07:20:50;;;;;;;;;33.25;23.25;;;;;5.35;98.93;100550.15;111480;255;40786;-52
2024/03/15 07:23:32;;;;;;;;;33.50;24.00;;;;;5.48;98.52;100553.47;111477;255;39848;-55
2024/03/15 07:26:10;;;;;;;;;24.67;18.33;;;;;5.52;98.19;100549.66;111554;255;39520;-54
2024/03/15 07:28:45;;;;;;;;;16.00;12.00;;;;;5.71;98.11;100546.80;111367;241;161167;-54
2024/03/15 07:31:23;;;;;;;;;28.00;19.25;;;;;5.97;97.97;100539.04;111505;254;39571;-54
2024/03/15 07:33:59;;;;;;;;;28.00;20.00;;;;;6.31;97.98;100535.64;111272;241;161485;-54
2024/03/15 07:36:40;;;;;;;;;20.00;16.00;;;;;6.68;97.55;100532.26;111466;255;40791;-51
2024/03/15 07:39:23;;;;;;;;;32.33;20.33;;;;;6.94;96.32;100534.16;111324;240;161443;-50
2024/03/15 07:42:06;;;;;;;;;17.50;13.00;;;;;7.47;95.98;100533.23;111487;255;40253;-54
2024/03/15 07:44:40;;;;;;;;;30.00;21.67;;;;;7.74;95.28;100532.19;111535;255;39410;-55
2024/03/15 07:47:22;;;;;;;;;28.50;20.00;;;;;7.89;94.23;100536.30;111328;241;161115;-53
2024/03/15 07:50:05;;;;;;;;;32.00;23.00;;;;;8.07;93.76;100534.50;111420;255;39489;-53
2024/03/15 07:52:44;;;;;;;;;18.00;14.00;;;;;8.32;92.31;100532.04;111288;240;160474;-51
2024/03/15 07:55:21;;;;;;;;;26.67;19.00;;;;;8.73;92.21;100526.96;111427;255;39920;-51
2024/03/15 07:57:57;;;;;;;;;24.67;18.33;;;;;9.52;91.99;100526.78;111338;241;160841;-54
2024/03/15 08:00:36;;;;;;;;;26.00;18.00;;;;;10.67;91.68;100521.27;111457;255;40290;-53
2024/03/15 08:03:18;;;;;;;;;31.00;24.00;;;;;11.45;90.22;100520.27;111313;240;163430;-50
2024/03/15 08:06:05;;;;;;;;;33.00;24.00;;;;;11.90;89.26;100521.67;111048;255;40029;-52
2024/03/15 08:08:44;;;;;;;;;37.00;27.00;;;;;12.17;86.69;100522.35;111467;256;41319;-51
2024/03/15 08:11:20;;;;;;;;;34.50;25.50;;;;;12.84;87.14;100518.77;111372;241;161501;-51
2024/03/15 08:13:55;;;;;;;;;33.33;25.00;;;;;13.73;85.54;100522.98;111487;255;39164;-51
2024/03/15 08:16:41;;;;;;;;;26.00;19.33;;;;;13.84;82.49;100520.45;111374;240;161136;-54
2024/03/15 08:19:26;;;;;;;;;32.33;22.33;;;;;13.47;78.72;100523.64;111453;255;39351;-54
2024/03/15 08:22:01;;;;;;;;;31.00;25.00;;;;;13.92;80.77;100518.41;111334;241;161813;-50
2024/03/15 08:24:37;;;;;;;;;26.00;20.00;;;;;14.66;81.24;100514.23;111478;256;39903;-50
2024/03/15 08:27:15;;;;;;;;;28.33;23.00;;;;;14.66;78.78;100516.08;111317;240;161222;-51
2024/03/15 08:29:55;;;;;;;;;32.00;23.67;;;;;14.77;77.14;100513.84;111420;255;41104;-51
2024/03/15 08:32:38;;;;;;;;;33.75;26.00;;;;;15.26;75.03;100511.46;111443;255;40760;-54
2024/03/15 08:35:17;;;;;;;;;32.00;24.00;;;;;15.76;73.25;100511.77;111361;241;162784;-54
2024/03/15 08:37:58;;;;;;;;;32.00;24.00;;;;;16.04;71.76;100512.66;111522;255;40334;-55
2024/03/15 08:40:42;;;;;;;;;29.00;23.00;;;;;16.14;69.69;100504.48;111273;244;161773;-54
2024/03/15 08:43:26;;;;;;;;;32.00;24.00;;;;;16.11;70.44;100503.76;111454;255;39993;-50
2024/03/15 08:46:04;;;;;;;;;28.00;22.50;;;;;16.58;70.58;100503.41;111361;241;161016;-51
2024/03/15 08:48:39;;;;;;;;;25.75;18.25;;;;;17.30;68.29;100498.20;111546;255;39532;-51
2024/03/15 08:51:18;;;;;;;;;29.50;23.00;;;;;17.38;67.61;100498.52;111368;240;161243;-54
2024/03/15 08:53:53;;;;;;;;;24.00;18.00;;;;;17.60;64.96;100499.94;111510;255;40070;-55
2024/03/15 08:56:27;;;;;;;;;31.00;24.00;;;;;17.53;64.52;100496.75;111536;255;39556;-54
2024/03/15 08:59:04;;;;;;;;;30.00;24.00;;;;;17.55;64.17;100499.08;111517;241;161056;-54
2024/03/15 09:01:41;;;;;;;;;32.50;25.00;;;;;17.39;61.79;100495.66;111514;255;40573;-53
2024/03/15 09:04:24;;;;;;;;;29.00;22.00;;;;;17.38;62.22;100495.85;111384;240;161128;-53
2024/03/15 09:07:01;;;;;;;;;29.00;23.00;;;;;17.29;61.84;100493.63;111551;255;40377;-55
2024/03/15 09:09:40;;;;;;;;;27.00;22.00;;;;;16.92;61.53;100489.14;111437;241;161201;-55
2024/03/15 09:12:20;;;;;;;;;27.25;22.00;;;;;16.70;60.07;100489.83;111592;255;40547;-55
2024/03/15 09:14:58;;;;;;;;;24.33;18.67;;;;;16.61;58.75;100487.66;111405;255;39865;-54
2024/03/15 09:17:38;;;;;;;;;27.00;20.75;;;;;16.22;57.20;100492.33;111480;256;40226;-54
2024/03/15 09:20:19;;;;;;;;;27.00;20.00;;;;;16.17;59.36;100491.84;111442;255;40077;-54
2024/03/15 09:23:01;;;;;;;;;25.75;20.75;;;;;16.45;59.96;100494.71;111443;241;161146;-52
2024/03/15 09:25:42;;;;;;;;;24.50;20.00;;;;;16.51;58.40;100491.65;111416;255;40531;-52
2024/03/15 09:28:23;;;;;;;;;26.00;21.00;;;;;16.67;58.53;100499.55;111237;242;161051;-52
2024/03/15 09:31:08;;;;;;;;;24.75;19.50;;;;;16.49;58.28;100489.35;111481;255;40280;-55
2024/03/15 09:33:48;;;;;;;;;21.00;17.25;;;;;16.43;58.43;100487.60;111349;241;160890;-55
2024/03/15 09:36:32;;;;;;;;;22.00;19.00;;;;;16.52;57.04;100484.84;111494;255;40142;-52
2024/03/15 09:39:09;;;;;;;;;24.00;19.00;;;;;16.30;56.37;100486.14;111333;241;161086;-52
2024/03/15 09:41:47;;;;;;;;;27.00;20.00;;;;;15.98;55.87;100484.40;111377;255;40441;-52
2024/03/15 09:44:23;;;;;;;;;26.00;20.00;;;;;15.75;55.82;100485.15;111455;255;38975;-52
2024/03/15 09:47:04;;;;;;;;;21.00;17.67;;;;;15.49;56.56;100482.30;111463;241;161094;-54
2024/03/15 09:49:42;;;;;;;;;22.00;19.00;;;;;15.43;57.49;100477.96;111508;255;40021;-54
2024/03/15 09:52:21;;;;;;;;;22.67;18.00;;;;;15.60;57.77;100481.39;111373;240;160962;-52
2024/03/15 09:54:58;;;;;;;;;24.00;19.00;;;;;15.51;58.08;100481.25;111434;255;39742;-52
2024/03/15 09:57:36;;;;;;;;;26.00;19.67;;;;;15.60;58.62;100482.39;111423;241;161076;-52
2024/03/15 10:00:21;;;;;;;;;20.00;17.00;;;;;15.52;58.02;100478.99;111492;255;39537;-53
2024/03/15 10:03:01;;;;;;;;;20.67;14.33;;;;;15.24;57.29;100475.52;111376;255;41512;-52
2024/03/15 10:05:42;;;;;;;;;21.00;16.00;;;;;14.90;57.35;100475.83;111299;255;39341;-52
2024/03/15 10:08:21;;;;;;;;;18.00;13.00;;;;;14.65;56.60;100478.48;111434;255;39599;-54
2024/03/15 10:10:58;;;;;;;;;26.75;18.00;;;;;14.23;57.10;100478.95;111266;241;162372;-55
2024/03/15 10:13:34;;;;;;;;;18.00;15.00;;;;;14.10;58.12;100474.61;111474;255;39161;-55
2024/03/15 10:16:11;;;;;;;;;20.33;16.00;;;;;13.93;57.39;100471.52;111288;241;161263;-52
2024/03/15 10:18:50;;;;;;;;;26.00;19.50;;;;;13.66;58.03;100473.32;111417;255;40248;-52
2024/03/15 10:21:28;;;;;;;;;21.50;17.50;;;;;13.59;58.59;100472.32;111393;240;161080;-52
2024/03/15 10:24:05;;;;;;;;;18.00;13.25;;;;;13.43;58.61;100469.31;111388;255;39499;-52
2024/03/15 10:26:43;;;;;;;;;20.50;15.00;;;;;13.24;58.64;100464.89;111526;255;41687;-52
2024/03/15 10:29:21;;;;;;;;;24.67;16.00;;;;;12.95;58.44;100457.90;111377;241;160921;-51
2024/03/15 10:31:56;;;;;;;;;17.00;13.00;;;;;12.97;59.23;100458.15;111508;255;39025;-52
2024/03/15 10:34:32;;;;;;;;;18.00;14.00;;;;;13.03;59.05;100455.88;111384;240;160801;-52
2024/03/15 10:37:10;;;;;;;;;18.25;13.75;;;;;13.00;59.09;100460.63;111473;255;39032;-55
2024/03/15 10:39:48;;;;;;;;;16.50;12.50;;;;;12.74;59.87;100460.30;111339;241;161095;-56
2024/03/15 10:42:25;;;;;;;;;18.75;14.00;;;;;12.76;59.74;100457.14;111471;255;40566;-52
2024/03/15 10:45:09;;;;;;;;;18.50;14.00;;;;;12.70;59.92;100450.90;111421;255;39441;-51
2024/03/15 10:47:45;;;;;;;;;17.00;13.00;;;;;12.57;59.75;100446.66;111359;255;39426;-54
2024/03/15 10:50:24;;;;;;;;;17.00;13.00;;;;;12.52;60.17;100446.64;111453;255;39877;-54
2024/03/15 10:53:01;;;;;;;;;18.75;15.00;;;;;12.57;60.19;100445.09;111351;243;160905;-53
2024/03/15 10:55:40;;;;;;;;;16.25;13.50;;;;;12.55;60.36;100441.62;111453;255;40468;-53
2024/03/15 10:58:16;;;;;;;;;18.00;14.00;;;;;12.77;60.94;100437.13;111239;242;160482;-52
2024/03/15 11:00:51;;;;;;;;;20.00;14.75;;;;;12.88;61.33;100432.67;111385;255;39468;-52
2024/03/15 11:03:30;;;;;;;;;17.75;14.00;;;;;13.04;60.78;100434.31;111366;240;161040;-52
2024/03/15 11:06:10;;;;;;;;;16.75;13.00;;;;;13.00;60.84;100436.88;111440;255;39146;-54
2024/03/15 11:08:52;;;;;;;;;20.00;15.00;;;;;13.08;60.18;100433.16;111409;255;40415;-55
2024/03/15 11:11:31;;;;;;;;;20.00;15.00;;;;;13.00;60.02;100430.67;111419;241;160619;-51
2024/03/15 11:14:23;;;;;;;;;20.00;15.00;;;;;12.79;59.66;100431.09;111420;255;39410;-51
2024/03/15 11:17:06;;;;;;;;;12.33;9.67;;;;;12.59;59.88;100423.88;111278;256;160893;-54
2024/03/15 11:19:53;;;;;;;;;20.50;16.00;;;;;12.60;60.04;100424.80;111215;256;39838;-53
2024/03/15 11:22:27;;;;;;;;;19.00;15.00;;;;;12.62;60.54;100417.60;111048;243;160935;-54
2024/03/15 11:25:17;;;;;;;;;21.25;13.75;;;;;12.73;60.79;100418.86;111145;256;39530;-53
2024/03/15 11:27:59;;;;;;;;;14.00;10.00;;;;;12.62;60.34;100415.09;111160;243;160968;-63
2024/03/15 11:30:35;;;;;;;;;15.67;12.00;;;;;12.51;60.17;100417.04;111272;256;39984;-55
2024/03/15 11:33:14;;;;;;;;;26.00;20.00;;;;;12.48;59.94;100414.73;111075;244;161083;-52
2024/03/15 11:35:49;;;;;;;;;22.25;18.00;;;;;12.08;59.78;100421.91;111187;256;39952;-50
2024/03/15 11:38:24;;;;;;;;;23.75;17.00;;;;;11.94;60.48;100419.79;111191;256;40137;-50
2024/03/15 11:40:59;;;;;;;;;20.00;15.50;;;;;11.88;60.53;100415.67;111095;243;161045;-54
2024/03/15 11:43:36;;;;;;;;;20.00;14.00;;;;;11.84;60.73;100410.39;111197;256;39399;-54
2024/03/15 11:46:14;;;;;;;;;15.00;12.00;;;;;11.85;61.19;100410.36;111078;243;160881;-51
2024/03/15 11:48:56;;;;;;;;;16.50;13.00;;;;;11.77;61.31;100409.70;111191;257;39876;-50
2024/03/15 11:51:34;;;;;;;;;19.00;15.00;;;;;11.86;61.30;100407.27;111160;243;161243;-50
2024/03/15 11:54:19;;;;;;;;;19.00;15.00;;;;;11.94;61.20;100408.55;111334;256;39916;-51
2024/03/15 11:57:01;;;;;;;;;18.33;14.00;;;;;11.95;61.22;100406.33;111199;256;40923;-50
2024/03/15 11:59:36;;;;;;;;;21.50;15.00;;;;;11.94;61.21;100403.58;111165;244;40471;-53
2024/03/15 12:02:17;;;;;;;;;23.75;17.00;;;;;11.81;60.97;100404.54;111229;257;41106;-50
2024/03/15 12:04:55;;;;;;;;;20.00;16.00;;;;;11.63;61.31;100404.17;111056;243;162066;-53